createdAt,value
2022-07-28T00:00:15.573Z,1.90
2022-07-28T00:02:43.472Z,2.17
2022-07-28T00:05:11.757Z,1.60
2022-07-28T00:07:39.219Z,1.10
2022-07-28T00:10:07.531Z,1.50
2022-07-28T00:12:35.167Z,1.50
2022-07-28T00:15:02.663Z,1.57
2022-07-28T00:17:30.125Z,1.77
2022-07-28T00:19:57.618Z,1.60
2022-07-28T00:22:25.575Z,1.57
2022-07-28T00:24:52.956Z,1.43
2022-07-28T00:27:20.294Z,1.37
2022-07-28T00:29:51.058Z,1.50
2022-07-28T00:32:20.417Z,1.33
2022-07-28T00:34:48.148Z,1.50
2022-07-28T00:37:15.973Z,1.73
2022-07-28T00:39:43.857Z,1.73
2022-07-28T00:42:12.240Z,1.60
2022-07-28T00:44:42.022Z,1.57
2022-07-28T00:47:09.574Z,1.70
2022-07-28T00:49:37.459Z,1.70
2022-07-28T00:52:06.507Z,2.43
2022-07-28T00:54:34.424Z,1.80
2022-07-28T00:57:01.897Z,1.90
2022-07-28T00:59:29.370Z,2.80
2022-07-28T01:02:01.036Z,2.23
2022-07-28T01:04:29.177Z,1.90
2022-07-28T01:07:07.983Z,2.10
2022-07-28T01:09:46.005Z,1.77
2022-07-28T01:12:33.461Z,1.90
2022-07-28T01:15:26.926Z,1.80
2022-07-28T01:18:02.363Z,2.07
2022-07-28T01:20:54.949Z,1.83
2022-07-28T01:23:31.655Z,1.60
2022-07-28T01:26:21.023Z,1.93
2022-07-28T01:28:51.254Z,2.23
2022-07-28T01:31:23.772Z,2.20
2022-07-28T01:33:56.991Z,1.87
2022-07-28T01:36:39.312Z,1.83
2022-07-28T01:39:07.250Z,2.00
2022-07-28T01:41:36.314Z,2.07
2022-07-28T01:44:12.342Z,1.90
2022-07-28T01:46:41.744Z,2.17
2022-07-28T01:49:10.553Z,2.20
2022-07-28T01:51:39.521Z,2.57
2022-07-28T01:54:08.910Z,2.30
2022-07-28T01:56:38.035Z,2.17
2022-07-28T01:59:07.382Z,2.30
2022-07-28T02:01:36.976Z,2.40
2022-07-28T02:04:06.714Z,2.10
2022-07-28T02:06:35.410Z,2.20
2022-07-28T02:09:05.084Z,2.10
2022-07-28T02:11:41.729Z,2.50
2022-07-28T02:14:12.948Z,2.50
2022-07-28T02:16:46.769Z,2.33
2022-07-28T02:19:16.961Z,2.23
2022-07-28T02:21:47.770Z,2.77
2022-07-28T02:24:19.383Z,2.60
2022-07-28T02:27:14.426Z,2.60
2022-07-28T02:29:51.082Z,2.90
2022-07-28T02:32:37.566Z,2.80
2022-07-28T02:35:11.094Z,2.77
2022-07-28T02:37:40.917Z,2.73
2022-07-28T02:40:14.045Z,2.67
2022-07-28T02:42:44.518Z,3.03
2022-07-28T02:45:16.091Z,2.60
2022-07-28T02:47:51.994Z,2.90
2022-07-28T02:50:24.375Z,2.70
2022-07-28T02:52:55.170Z,3.03
2022-07-28T02:55:24.604Z,2.50
2022-07-28T02:57:56.643Z,2.60
2022-07-28T03:00:25.761Z,3.10
2022-07-28T03:02:55.218Z,2.67
2022-07-28T03:05:23.211Z,3.03
2022-07-28T03:07:52.723Z,2.50
2022-07-28T03:10:33.458Z,2.80
2022-07-28T03:13:04.318Z,2.30
2022-07-28T03:15:32.261Z,2.73
2022-07-28T03:18:00.666Z,3.00
2022-07-28T03:20:28.408Z,2.83
2022-07-28T03:22:56.151Z,2.77
2022-07-28T03:25:44.919Z,3.10
2022-07-28T03:28:17.846Z,4.03
2022-07-28T03:30:57.203Z,2.77
2022-07-28T03:33:24.947Z,2.60
2022-07-28T03:35:55.838Z,2.50
2022-07-28T03:38:29.411Z,2.97
2022-07-28T03:40:58.716Z,2.73
2022-07-28T03:43:28.467Z,2.97
2022-07-28T03:45:55.891Z,3.20
2022-07-28T03:48:32.268Z,2.83
2022-07-28T03:50:59.897Z,3.00
2022-07-28T03:53:28.614Z,3.17
2022-07-28T03:55:56.929Z,2.70
2022-07-28T03:58:28.571Z,3.00
2022-07-28T04:00:57.923Z,2.93
2022-07-28T04:03:43.192Z,3.00
2022-07-28T04:06:15.616Z,3.10
2022-07-28T04:08:44.794Z,2.80
2022-07-28T04:11:12.660Z,2.60
2022-07-28T04:13:40.015Z,3.13
2022-07-28T04:16:08.272Z,3.70
2022-07-28T04:18:35.745Z,3.30
2022-07-28T04:21:03.217Z,2.70
2022-07-28T04:23:31.026Z,2.90
2022-07-28T04:25:58.788Z,2.53
2022-07-28T04:28:26.733Z,2.60
2022-07-28T04:30:54.197Z,2.63
2022-07-28T04:33:21.628Z,2.80
2022-07-28T04:35:49.042Z,2.73
2022-07-28T04:38:20.219Z,2.40
2022-07-28T04:40:48.291Z,2.90
2022-07-28T04:43:16.652Z,2.90
2022-07-28T04:45:54.212Z,3.00
2022-07-28T04:48:23.598Z,2.77
2022-07-28T04:50:52.757Z,2.23
2022-07-28T04:53:21.246Z,2.40
2022-07-28T04:55:49.576Z,2.10
2022-07-28T04:58:18.332Z,2.70
2022-07-28T05:00:49.894Z,2.40
2022-07-28T05:03:18.773Z,2.40
2022-07-28T05:05:49.207Z,2.60
2022-07-28T05:08:25.536Z,2.30
2022-07-28T05:10:55.504Z,1.93
2022-07-28T05:13:23.014Z,3.20
2022-07-28T05:15:51.308Z,2.30
2022-07-28T05:18:18.756Z,2.30
2022-07-28T05:21:11.983Z,2.10
2022-07-28T05:23:45.709Z,1.93
2022-07-28T05:26:15.031Z,1.80
2022-07-28T05:28:42.408Z,2.27
2022-07-28T05:31:09.893Z,1.90
2022-07-28T05:33:37.732Z,2.00
2022-07-28T05:36:05.636Z,2.33
2022-07-28T05:38:33.295Z,2.17
2022-07-28T05:41:00.699Z,2.30
2022-07-28T05:43:28.151Z,2.27
2022-07-28T05:45:55.558Z,1.90
2022-07-28T05:48:24.083Z,1.87
2022-07-28T05:50:51.468Z,1.80
2022-07-28T05:53:19.461Z,2.53
2022-07-28T05:56:00.119Z,1.33
2022-07-28T05:58:30.617Z,1.63
2022-07-28T06:01:02.669Z,1.87
2022-07-28T06:03:32.156Z,2.57
2022-07-28T06:06:15.049Z,1.90
2022-07-28T06:08:45.704Z,1.90
2022-07-28T06:11:21.954Z,1.73
2022-07-28T06:13:51.774Z,1.90
2022-07-28T06:16:22.762Z,1.83
2022-07-28T06:18:51.026Z,2.03
2022-07-28T06:21:18.927Z,1.97
2022-07-28T06:23:46.998Z,1.63
2022-07-28T06:26:14.370Z,1.90
2022-07-28T06:28:42.267Z,1.90
2022-07-28T06:31:09.801Z,2.10
2022-07-28T06:33:37.912Z,1.87
2022-07-28T06:36:05.581Z,1.77
2022-07-28T06:38:33.260Z,2.03
2022-07-28T06:41:00.632Z,1.87
2022-07-28T06:43:28.826Z,1.80
2022-07-28T06:45:56.399Z,1.97
2022-07-28T06:48:27.276Z,1.37
2022-07-28T06:50:59.492Z,1.30
2022-07-28T06:53:31.813Z,1.47
2022-07-28T06:56:01.230Z,1.17
2022-07-28T06:58:28.683Z,1.33
2022-07-28T07:00:58.529Z,1.40
2022-07-28T07:03:25.916Z,1.60
2022-07-28T07:05:53.580Z,1.30
2022-07-28T07:08:20.972Z,1.60
2022-07-28T07:10:48.851Z,1.30
2022-07-28T07:13:16.406Z,1.37
2022-07-28T07:15:43.733Z,1.37
2022-07-28T07:18:11.446Z,1.50
2022-07-28T07:20:38.832Z,1.70
2022-07-28T07:23:06.220Z,1.80
2022-07-28T07:25:34.497Z,1.47
2022-07-28T07:28:02.159Z,1.23
2022-07-28T07:30:30.182Z,1.30
2022-07-28T07:32:57.519Z,1.60
2022-07-28T07:35:25.064Z,1.50
2022-07-28T07:37:52.406Z,1.53
2022-07-28T07:40:19.791Z,1.10
2022-07-28T07:42:47.154Z,1.27
2022-07-28T07:45:15.261Z,1.20
2022-07-28T07:47:42.632Z,1.60
2022-07-28T07:50:10.147Z,1.40
2022-07-28T07:52:37.551Z,1.20
2022-07-28T07:55:06.002Z,1.27
2022-07-28T07:57:33.371Z,2.00
2022-07-28T08:00:00.902Z,1.30
2022-07-28T08:02:28.221Z,2.07
2022-07-28T08:04:56.143Z,1.27
2022-07-28T08:07:23.498Z,1.07
2022-07-28T08:09:51.213Z,0.90
2022-07-28T08:12:25.029Z,0.70
2022-07-28T08:14:53.848Z,0.70
2022-07-28T08:17:25.852Z,1.00
2022-07-28T08:19:55.117Z,0.80
2022-07-28T08:22:23.308Z,1.10
2022-07-28T08:24:51.111Z,0.90
2022-07-28T08:27:18.610Z,0.80
2022-07-28T08:29:45.994Z,0.60
2022-07-28T08:32:13.753Z,0.80
2022-07-28T08:34:41.603Z,0.90
2022-07-28T08:37:09.024Z,0.90
2022-07-28T08:39:36.583Z,0.90
2022-07-28T08:42:09.424Z,1.07
2022-07-28T08:44:49.845Z,0.80
2022-07-28T08:47:19.200Z,1.03
2022-07-28T08:49:48.398Z,1.20
2022-07-28T08:52:19.220Z,1.00
2022-07-28T08:54:48.404Z,0.70
2022-07-28T08:57:25.899Z,0.60
2022-07-28T08:59:54.420Z,0.80
2022-07-28T09:02:23.622Z,0.97
2022-07-28T09:04:51.293Z,0.70
2022-07-28T09:07:18.900Z,0.93
2022-07-28T09:09:49.340Z,0.73
2022-07-28T09:12:17.494Z,0.83
2022-07-28T09:14:44.981Z,0.80
2022-07-28T09:17:12.746Z,1.40
2022-07-28T09:19:40.156Z,0.80
2022-07-28T09:22:08.122Z,0.77
2022-07-28T09:24:37.857Z,0.90
2022-07-28T09:27:08.128Z,1.20
2022-07-28T09:29:37.901Z,0.83
2022-07-28T09:32:05.964Z,1.00
2022-07-28T09:34:47.828Z,0.87
2022-07-28T09:37:27.138Z,1.00
2022-07-28T09:39:59.600Z,0.60
2022-07-28T09:42:50.839Z,0.73
2022-07-28T09:45:23.307Z,0.77
2022-07-28T09:48:14.841Z,0.90
2022-07-28T09:50:43.287Z,0.80
2022-07-28T09:53:28.336Z,0.80
2022-07-28T09:56:01.353Z,0.60
2022-07-28T09:58:30.459Z,0.73
2022-07-28T10:01:20.908Z,0.80
2022-07-28T10:03:57.244Z,0.70
2022-07-28T10:06:28.337Z,0.60
2022-07-28T10:08:59.101Z,0.63
2022-07-28T10:11:29.185Z,0.90
2022-07-28T10:14:02.986Z,0.73
2022-07-28T10:16:53.353Z,0.70
2022-07-28T10:19:21.732Z,0.90
2022-07-28T10:21:54.385Z,0.90
2022-07-28T10:24:22.895Z,1.03
2022-07-28T10:26:52.500Z,0.70
2022-07-28T10:29:22.079Z,0.70
2022-07-28T10:31:55.077Z,0.80
2022-07-28T10:34:38.920Z,0.70
2022-07-28T10:37:10.500Z,0.60
2022-07-28T10:40:07.822Z,0.97
2022-07-28T10:42:41.808Z,0.80
2022-07-28T10:45:13.447Z,0.90
2022-07-28T10:47:41.847Z,0.87
2022-07-28T10:50:09.906Z,0.70
2022-07-28T10:52:49.891Z,0.70
2022-07-28T10:55:22.490Z,0.97
2022-07-28T10:58:19.585Z,1.03
2022-07-28T11:00:57.943Z,0.90
2022-07-28T11:03:44.906Z,1.00
2022-07-28T11:06:37.027Z,0.70
2022-07-28T11:09:16.784Z,0.70
2022-07-28T11:11:54.787Z,0.77
2022-07-28T11:14:25.385Z,0.60
2022-07-28T11:17:04.749Z,0.90
2022-07-28T11:20:16.710Z,0.70
2022-07-28T11:22:33.889Z,0.50
2022-07-28T11:25:18.057Z,0.70
2022-07-28T11:27:51.194Z,0.60
2022-07-28T11:30:19.152Z,0.70
2022-07-28T11:32:55.679Z,0.80
2022-07-28T11:35:24.874Z,0.70
2022-07-28T11:38:01.335Z,0.70
2022-07-28T11:40:30.869Z,0.70
2022-07-28T11:43:35.473Z,0.63
2022-07-28T11:46:10.300Z,0.80
2022-07-28T11:48:47.339Z,0.77
2022-07-28T11:51:15.868Z,0.40
2022-07-28T11:53:43.656Z,0.60
2022-07-28T11:56:25.949Z,0.57
2022-07-28T11:59:05.264Z,0.67
2022-07-28T12:01:36.946Z,0.70
2022-07-28T12:04:15.723Z,0.60
2022-07-28T12:06:44.414Z,0.63
2022-07-28T12:09:23.578Z,0.60
2022-07-28T12:11:54.171Z,0.40
2022-07-28T12:14:34.862Z,0.70
2022-07-28T12:17:04.761Z,0.60
2022-07-28T12:19:33.255Z,0.70
2022-07-28T12:22:01.019Z,0.80
2022-07-28T12:24:45.093Z,0.63
2022-07-28T12:27:15.384Z,0.53
2022-07-28T12:29:47.991Z,0.67
2022-07-28T12:32:17.581Z,0.60
2022-07-28T12:34:45.414Z,0.70
2022-07-28T12:37:14.345Z,0.50
2022-07-28T12:39:44.163Z,0.50
2022-07-28T12:42:13.220Z,0.50
2022-07-28T12:44:42.839Z,0.80
2022-07-28T12:47:12.598Z,0.40
2022-07-28T12:49:42.237Z,0.50
2022-07-28T12:52:22.228Z,0.70
2022-07-28T12:54:54.543Z,0.73
2022-07-28T12:57:48.866Z,0.40
2022-07-28T13:00:20.745Z,0.60
2022-07-28T13:02:50.875Z,0.70
2022-07-28T13:06:06.763Z,0.60
2022-07-28T13:08:45.864Z,0.63
2022-07-28T13:14:03.740Z,0.63
2022-07-28T13:16:31.183Z,0.47
2022-07-28T13:19:02.746Z,0.70
2022-07-28T13:21:57.198Z,0.67
2022-07-28T13:24:29.080Z,0.53
2022-07-28T13:26:58.883Z,0.67
2022-07-28T13:29:26.503Z,0.57
2022-07-28T13:31:56.993Z,0.43
2022-07-28T13:34:24.576Z,0.60
2022-07-28T13:36:52.498Z,0.60
2022-07-28T13:39:20.090Z,0.60
2022-07-28T13:41:57.991Z,0.80
2022-07-28T13:44:28.530Z,0.60
2022-07-28T13:46:56.465Z,0.47
2022-07-28T13:49:24.561Z,0.53
2022-07-28T13:51:53.306Z,0.70
2022-07-28T13:54:21.045Z,0.90
2022-07-28T13:56:48.931Z,0.77
2022-07-28T13:59:16.656Z,1.03
2022-07-28T14:01:49.952Z,0.60
2022-07-28T14:04:21.532Z,0.93
2022-07-28T14:06:49.879Z,0.60
2022-07-28T14:09:18.839Z,0.70
2022-07-28T14:11:50.048Z,0.50
2022-07-28T14:14:26.691Z,0.80
2022-07-28T14:16:55.303Z,0.80
2022-07-28T14:19:37.890Z,0.70
2022-07-28T14:22:12.781Z,0.50
2022-07-28T14:24:41.673Z,0.40
2022-07-28T14:27:10.939Z,0.50
2022-07-28T14:29:39.341Z,0.50
2022-07-28T14:32:07.326Z,1.20
2022-07-28T14:34:35.421Z,0.70
2022-07-28T14:37:08.601Z,0.60
2022-07-28T14:39:38.446Z,0.60
2022-07-28T14:42:06.920Z,0.50
2022-07-28T14:44:34.934Z,0.60
2022-07-28T14:47:02.716Z,0.87
2022-07-28T14:49:30.218Z,0.93
2022-07-28T14:51:59.301Z,0.60
2022-07-28T14:54:27.794Z,0.60
2022-07-28T14:56:55.635Z,0.90
2022-07-28T14:59:23.337Z,0.80
2022-07-28T15:01:51.726Z,0.70
2022-07-28T15:04:20.369Z,0.70
2022-07-28T15:06:48.445Z,0.90
2022-07-28T15:09:15.889Z,1.10
2022-07-28T15:11:44.702Z,0.80
2022-07-28T15:14:12.332Z,0.90
2022-07-28T15:16:42.851Z,1.30
2022-07-28T15:19:10.750Z,0.90
2022-07-28T15:21:40.599Z,1.00
2022-07-28T15:24:09.191Z,0.80
2022-07-28T15:27:01.697Z,0.80
2022-07-28T15:29:35.638Z,0.80
2022-07-28T15:32:04.669Z,0.90
2022-07-28T15:34:33.529Z,0.93
2022-07-28T15:37:01.335Z,1.40
2022-07-28T15:39:31.042Z,1.23
2022-07-28T15:42:00.323Z,1.10
2022-07-28T15:44:29.845Z,1.20
2022-07-28T15:46:57.357Z,1.10
2022-07-28T15:49:25.064Z,1.10
2022-07-28T15:51:52.781Z,1.10
2022-07-28T15:54:20.147Z,0.80
2022-07-28T15:56:47.583Z,1.10
2022-07-28T15:59:15.002Z,1.10
2022-07-28T16:01:45.625Z,1.40
2022-07-28T16:04:13.558Z,1.43
2022-07-28T16:07:00.045Z,1.20
2022-07-28T16:09:45.401Z,0.90
2022-07-28T16:12:14.987Z,1.00
2022-07-28T16:14:43.011Z,1.10
2022-07-28T16:17:11.687Z,0.90
2022-07-28T16:19:49.994Z,1.20
2022-07-28T16:22:19.053Z,0.80
2022-07-28T16:24:47.293Z,0.97
2022-07-28T16:27:15.328Z,1.10
2022-07-28T16:29:43.498Z,0.80
2022-07-28T16:32:11.363Z,0.90
2022-07-28T16:34:38.766Z,0.93
2022-07-28T16:37:06.463Z,1.47
2022-07-28T16:39:34.655Z,1.20
2022-07-28T16:42:02.957Z,1.30
2022-07-28T16:44:30.984Z,1.03
2022-07-28T16:46:58.871Z,1.30
2022-07-28T16:49:27.121Z,0.97
2022-07-28T16:51:55.538Z,1.27
2022-07-28T16:54:23.436Z,1.60
2022-07-28T16:56:52.113Z,1.10
2022-07-28T16:59:19.455Z,1.10
2022-07-28T17:01:47.197Z,1.10
2022-07-28T17:04:16.204Z,0.90
2022-07-28T17:06:45.239Z,0.80
2022-07-28T17:09:12.692Z,1.17
2022-07-28T17:11:42.045Z,1.07
2022-07-28T17:14:10.884Z,1.27
2022-07-28T17:16:38.506Z,1.00
2022-07-28T17:19:05.943Z,1.17
2022-07-28T17:21:35.841Z,1.23
2022-07-28T17:24:03.990Z,1.20
2022-07-28T17:29:19.439Z,1.60
2022-07-28T17:31:47.770Z,1.80
2022-07-28T17:34:15.644Z,2.30
2022-07-28T17:36:45.323Z,2.17
2022-07-28T17:39:13.229Z,2.00
2022-07-28T17:41:40.784Z,2.20
2022-07-28T17:44:08.135Z,1.80
2022-07-28T17:46:35.584Z,1.27
2022-07-28T17:49:04.275Z,1.30
2022-07-28T17:51:32.234Z,0.90
2022-07-28T17:54:00.292Z,1.17
2022-07-28T17:56:28.154Z,1.20
2022-07-28T17:58:56.103Z,1.20
2022-07-28T18:01:23.556Z,1.13
2022-07-28T18:03:58.060Z,1.20
2022-07-28T18:06:36.226Z,1.10
2022-07-28T18:09:10.394Z,1.40
2022-07-28T18:11:57.534Z,1.50
2022-07-28T18:14:27.626Z,1.10
2022-07-28T18:16:55.634Z,0.93
2022-07-28T18:19:23.117Z,1.10
2022-07-28T18:21:51.090Z,1.10
2022-07-28T18:24:21.699Z,0.90
2022-07-28T18:26:53.734Z,0.87
2022-07-28T18:29:22.280Z,1.20
2022-07-28T18:31:51.110Z,0.90
2022-07-28T18:34:19.497Z,0.90
2022-07-28T18:36:51.447Z,1.00
2022-07-28T18:39:18.845Z,1.13
2022-07-28T18:41:47.922Z,1.10
2022-07-28T18:44:20.017Z,1.33
2022-07-28T18:46:49.089Z,1.20
2022-07-28T18:49:16.839Z,1.03
2022-07-28T18:51:45.404Z,1.10
2022-07-28T18:54:18.771Z,0.93
2022-07-28T18:56:47.804Z,0.73
2022-07-28T18:59:16.107Z,1.40
2022-07-28T19:01:43.773Z,0.80
2022-07-28T19:04:11.153Z,0.73
2022-07-28T19:06:38.739Z,1.03
2022-07-28T19:09:06.912Z,1.07
2022-07-28T19:11:34.295Z,0.90
2022-07-28T19:14:02.230Z,1.13
2022-07-28T19:16:30.893Z,0.80
2022-07-28T19:18:58.411Z,1.83
2022-07-28T19:21:26.327Z,1.10
2022-07-28T19:23:53.856Z,1.33
2022-07-28T19:26:21.840Z,1.43
2022-07-28T19:28:51.489Z,1.07
2022-07-28T19:31:18.968Z,1.00
2022-07-28T19:33:47.397Z,1.27
2022-07-28T19:36:15.225Z,1.33
2022-07-28T19:38:43.959Z,1.17
2022-07-28T19:41:15.552Z,1.30
2022-07-28T19:43:42.991Z,1.03
2022-07-28T19:46:10.990Z,0.90
2022-07-28T19:48:39.258Z,1.40
2022-07-28T19:51:07.332Z,1.17
2022-07-28T19:53:35.836Z,1.10
2022-07-28T19:56:09.042Z,1.10
2022-07-28T19:58:37.079Z,1.27
2022-07-28T20:01:05.734Z,1.10
2022-07-28T20:04:01.863Z,1.00
2022-07-28T20:06:24.692Z,1.50
2022-07-28T20:08:54.177Z,1.00
2022-07-28T20:11:22.499Z,1.20
2022-07-28T20:13:49.891Z,1.10
2022-07-28T20:16:17.676Z,1.40
2022-07-28T20:18:45.219Z,0.90
2022-07-28T20:21:12.742Z,1.27
2022-07-28T20:23:41.071Z,1.30
2022-07-28T20:26:09.997Z,0.97
2022-07-28T20:28:38.066Z,1.13
2022-07-28T20:31:07.159Z,1.20
2022-07-28T20:33:34.585Z,1.20
2022-07-28T20:36:02.571Z,1.20
2022-07-28T20:38:29.947Z,1.30
2022-07-28T20:40:57.288Z,1.27
2022-07-28T20:43:31.284Z,1.20
2022-07-28T20:46:05.322Z,1.30
2022-07-28T20:48:32.926Z,1.30
2022-07-28T20:51:00.781Z,1.00
2022-07-28T20:53:28.358Z,1.67
2022-07-28T20:55:55.798Z,1.20
2022-07-28T20:58:23.139Z,1.40
2022-07-28T21:00:51.566Z,1.37
2022-07-28T21:03:19.658Z,1.30
2022-07-28T21:05:47.031Z,1.43
2022-07-28T21:08:16.022Z,1.67
2022-07-28T21:10:45.206Z,1.30
2022-07-28T21:13:12.666Z,1.40
2022-07-28T21:15:40.126Z,1.73
2022-07-28T21:18:07.604Z,1.30
2022-07-28T21:20:35.292Z,1.20
2022-07-28T21:23:03.233Z,1.73
2022-07-28T21:25:32.005Z,1.67
2022-07-28T21:28:18.222Z,1.40
2022-07-28T21:30:46.126Z,1.50
2022-07-28T21:33:13.832Z,1.50
2022-07-28T21:35:50.418Z,1.40
2022-07-28T21:38:17.917Z,1.53
2022-07-28T21:40:45.349Z,1.60
2022-07-28T21:43:12.867Z,1.67
2022-07-28T21:45:40.876Z,1.50
2022-07-28T21:48:08.812Z,1.90
2022-07-28T21:50:37.327Z,1.57
2022-07-28T21:53:04.705Z,1.83
2022-07-28T21:55:32.251Z,1.80
2022-07-28T21:57:59.686Z,1.63
2022-07-28T22:00:27.697Z,1.87
2022-07-28T22:02:55.126Z,1.67
2022-07-28T22:05:22.823Z,1.90
2022-07-28T22:07:50.241Z,1.90
2022-07-28T22:10:18.741Z,1.43
2022-07-28T22:12:46.179Z,2.33
2022-07-28T22:15:13.668Z,1.70
2022-07-28T22:17:41.857Z,1.60
2022-07-28T22:20:10.504Z,2.30
2022-07-28T22:22:38.163Z,1.80
2022-07-28T22:25:06.142Z,1.73
2022-07-28T22:27:33.541Z,1.73
2022-07-28T22:30:00.901Z,1.80
2022-07-28T22:32:29.247Z,1.90
2022-07-28T22:34:58.417Z,1.83
2022-07-28T22:37:25.849Z,1.77
2022-07-28T22:39:53.265Z,2.10
2022-07-28T22:42:20.690Z,1.73
2022-07-28T22:44:48.933Z,1.57
2022-07-28T22:47:16.837Z,2.20
2022-07-28T22:49:44.247Z,1.97
2022-07-28T22:52:11.626Z,1.27
2022-07-28T22:54:39.900Z,2.00
2022-07-28T22:57:07.498Z,1.73
2022-07-28T22:59:35.689Z,1.57
2022-07-28T23:02:07.880Z,2.00
2022-07-28T23:04:38.959Z,1.80
2022-07-28T23:07:14.977Z,1.90
2022-07-28T23:09:43.159Z,1.97
2022-07-28T23:12:11.242Z,1.63
2022-07-28T23:14:39.131Z,2.00
2022-07-28T23:17:06.495Z,2.30
2022-07-28T23:19:33.860Z,1.80
2022-07-28T23:22:01.264Z,2.50
2022-07-28T23:24:28.574Z,2.47
2022-07-28T23:26:56.491Z,2.00
2022-07-28T23:29:23.803Z,2.03
2022-07-28T23:31:51.307Z,2.50
2022-07-28T23:34:19.050Z,2.27
2022-07-28T23:36:47.936Z,1.93
2022-07-28T23:39:15.943Z,2.10
2022-07-28T23:41:43.408Z,2.30
2022-07-28T23:44:10.755Z,2.10
2022-07-28T23:46:38.332Z,2.50
2022-07-28T23:49:05.802Z,2.87
2022-07-28T23:51:47.590Z,2.70
2022-07-28T23:54:17.147Z,2.27
2022-07-28T23:56:45.504Z,2.67
2022-07-28T23:59:14.299Z,2.37
